Metar z pełnej godziny Komunikat METAR ze strony awiacja.imgw.pl Metar G00 EPLB METAR EPLB 271400Z 25009KT 9999 SCT018 BKN021 03/02 Q0997 =